createdAt,value
2018-04-11T00:00:02.702Z,11.19
2018-04-11T00:00:06.916Z,11.09
2018-04-11T00:00:11.022Z,11.16
2018-04-11T00:00:15.124Z,11.16
2018-04-11T00:00:19.342Z,11.09
2018-04-11T00:00:23.679Z,11.06
2018-04-11T00:00:27.933Z,11.12
2018-04-11T00:00:32.142Z,11.08
2018-04-11T00:00:36.457Z,11.17
2018-04-11T00:00:40.450Z,11.23
2018-04-11T00:00:44.446Z,11.17
2018-04-11T00:00:48.773Z,11.17
2018-04-11T00:00:53.087Z,11.16
2018-04-11T00:00:57.080Z,11.13
2018-04-11T00:01:01.403Z,11.17
2018-04-11T00:01:05.398Z,11.12
2018-04-11T00:01:09.717Z,11.23
2018-04-11T00:01:13.929Z,11.16
2018-04-11T00:01:18.247Z,11.17
2018-04-11T00:01:22.455Z,11.16
2018-04-11T00:01:26.664Z,11.17
2018-04-11T00:01:30.777Z,11.12
2018-04-11T00:01:34.882Z,11.17
2018-04-11T00:01:38.770Z,11.19
2018-04-11T00:01:42.873Z,11.12
2018-04-11T00:01:47.085Z,11.11
2018-04-11T00:01:51.406Z,11.17
2018-04-11T00:01:55.725Z,11.2
2018-04-11T00:02:00.040Z,11.21
2018-04-11T00:02:04.149Z,11.19
2018-04-11T00:02:08.250Z,11.16
2018-04-11T00:02:12.564Z,11.16
2018-04-11T00:02:16.564Z,11.19
2018-04-11T00:02:20.706Z,11.23
2018-04-11T00:02:24.923Z,11.2
2018-04-11T00:02:29.142Z,11.19
2018-04-11T00:02:33.476Z,11.21
2018-04-11T00:02:37.696Z,11.2
2018-04-11T00:02:42.013Z,11.24
2018-04-11T00:02:46.124Z,11.17
2018-04-11T00:02:50.227Z,11.23
2018-04-11T00:02:54.542Z,11.21
2018-04-11T00:02:58.649Z,11.24
2018-04-11T00:03:02.860Z,11.2
2018-04-11T00:03:06.746Z,11.12
2018-04-11T00:03:10.846Z,11.21
2018-04-11T00:03:14.958Z,11.17
2018-04-11T00:03:19.055Z,11.21
2018-04-11T00:03:23.057Z,11.24
2018-04-11T00:03:27.265Z,11.21
2018-04-11T00:03:31.580Z,11.3
2018-04-11T00:03:35.801Z,11.24
2018-04-11T00:03:40.020Z,11.23
2018-04-11T00:03:44.125Z,11.2
2018-04-11T00:03:48.444Z,11.17
2018-04-11T00:03:52.652Z,11.17
2018-04-11T00:03:56.868Z,11.17
2018-04-11T00:04:00.971Z,11.16
2018-04-11T00:04:05.076Z,11.13
2018-04-11T00:04:09.082Z,11.27
2018-04-11T00:04:13.084Z,11.19
2018-04-11T00:04:17.288Z,11.27
2018-04-11T00:04:21.511Z,11.16
2018-04-11T00:04:25.504Z,11.27
2018-04-11T00:04:29.865Z,11.26
2018-04-11T00:04:33.859Z,11.16
2018-04-11T00:04:38.177Z,11.28
2018-04-11T00:04:42.384Z,11.31
2018-04-11T00:04:46.489Z,11.27
2018-04-11T00:04:50.589Z,11.31
2018-04-11T00:04:54.920Z,11.28
2018-04-11T00:04:59.229Z,11.28
2018-04-11T00:05:03.335Z,11.24
2018-04-11T00:05:07.219Z,11.26
2018-04-11T00:05:11.109Z,11.31
2018-04-11T00:05:15.440Z,11.28
2018-04-11T00:05:19.652Z,11.31
2018-04-11T00:05:23.972Z,11.33
2018-04-11T00:05:28.182Z,11.3
2018-04-11T00:05:32.510Z,11.27
2018-04-11T00:05:36.831Z,11.27
2018-04-11T00:05:41.042Z,11.28
2018-04-11T00:05:45.151Z,11.33
2018-04-11T00:05:49.363Z,11.31
2018-04-11T00:05:53.460Z,11.27
2018-04-11T00:05:57.673Z,11.31
2018-04-11T00:06:02.035Z,11.33
2018-04-11T00:06:06.036Z,11.3
2018-04-11T00:06:10.140Z,11.28
2018-04-11T00:06:14.135Z,11.33
2018-04-11T00:06:18.346Z,11.38
2018-04-11T00:06:22.451Z,11.3
2018-04-11T00:06:26.454Z,11.3
2018-04-11T00:06:30.657Z,11.3
2018-04-11T00:06:34.768Z,11.35
2018-04-11T00:06:38.868Z,11.38
2018-04-11T00:06:43.119Z,11.31
2018-04-11T00:06:47.119Z,11.31
2018-04-11T00:06:51.340Z,11.35
2018-04-11T00:06:55.658Z,11.33
2018-04-11T00:06:59.770Z,11.38
2018-04-11T00:07:04.099Z,11.38
2018-04-11T00:07:08.317Z,11.35
2018-04-11T00:07:12.209Z,11.33
2018-04-11T00:07:16.474Z,11.38
2018-04-11T00:07:21.047Z,11.36
2018-04-11T00:07:25.319Z,11.38
2018-04-11T00:07:29.531Z,11.35
2018-04-11T00:07:33.645Z,11.28
2018-04-11T00:07:37.983Z,11.39
2018-04-11T00:07:42.308Z,11.36
2018-04-11T00:07:46.406Z,11.41
2018-04-11T00:07:50.507Z,11.39
2018-04-11T00:07:54.827Z,11.41
2018-04-11T00:07:59.153Z,11.31
2018-04-11T00:08:03.615Z,11.36
2018-04-11T00:08:07.822Z,11.44
2018-04-11T00:08:11.829Z,11.36
2018-04-11T00:08:16.145Z,11.28
2018-04-11T00:08:20.252Z,11.41
2018-04-11T00:08:24.466Z,11.38
2018-04-11T00:08:28.575Z,11.35
2018-04-11T00:08:32.680Z,11.41
2018-04-11T00:08:36.892Z,11.38
2018-04-11T00:08:41.099Z,11.39
2018-04-11T00:08:45.206Z,11.45
2018-04-11T00:08:49.309Z,11.38
2018-04-11T00:08:53.304Z,11.39
2018-04-11T00:08:57.516Z,11.45
2018-04-11T00:09:01.622Z,11.39
2018-04-11T00:09:05.828Z,11.39
2018-04-11T00:09:10.033Z,11.38
2018-04-11T00:09:14.360Z,11.46
2018-04-11T00:09:18.569Z,11.44
2018-04-11T00:09:22.676Z,11.45
2018-04-11T00:09:26.990Z,11.41
2018-04-11T00:09:31.195Z,11.42
2018-04-11T00:09:35.506Z,11.44
2018-04-11T00:09:39.816Z,11.54
2018-04-11T00:09:44.133Z,11.45
2018-04-11T00:09:48.237Z,11.42
2018-04-11T00:09:52.337Z,11.45
2018-04-11T00:09:56.655Z,11.51
2018-04-11T00:10:00.969Z,11.45
2018-04-11T00:10:05.068Z,11.49
2018-04-11T00:10:09.306Z,11.49
2018-04-11T00:10:13.515Z,11.46
2018-04-11T00:10:17.730Z,11.45
2018-04-11T00:10:21.936Z,11.45
2018-04-11T00:10:26.151Z,11.44
2018-04-11T00:10:30.149Z,11.53
2018-04-11T00:10:34.467Z,11.56
2018-04-11T00:10:38.784Z,11.51
2018-04-11T00:10:43.005Z,11.51
2018-04-11T00:10:47.210Z,11.54
2018-04-11T00:10:51.418Z,11.54
2018-04-11T00:10:55.532Z,11.53
2018-04-11T00:10:59.537Z,11.51
2018-04-11T00:11:04.051Z,11.45
2018-04-11T00:11:08.155Z,11.46
2018-04-11T00:11:12.469Z,11.48
2018-04-11T00:11:16.786Z,11.49
2018-04-11T00:11:20.997Z,11.46
2018-04-11T00:11:25.213Z,11.48
2018-04-11T00:11:29.207Z,11.46
2018-04-11T00:11:33.420Z,11.46
2018-04-11T00:11:37.528Z,11.48
2018-04-11T00:11:41.750Z,11.54
2018-04-11T00:11:46.079Z,11.51
2018-04-11T00:11:50.394Z,11.51
2018-04-11T00:11:54.387Z,11.48
2018-04-11T00:11:58.601Z,11.48
2018-04-11T00:12:02.765Z,11.6
2018-04-11T00:12:06.982Z,11.46
2018-04-11T00:12:11.081Z,11.54
2018-04-11T00:12:15.292Z,11.45
2018-04-11T00:12:19.396Z,11.51
2018-04-11T00:12:23.728Z,11.45
2018-04-11T00:12:28.050Z,11.59
2018-04-11T00:12:32.166Z,11.53
2018-04-11T00:12:36.480Z,11.54
2018-04-11T00:12:40.801Z,11.51
2018-04-11T00:12:45.124Z,11.46
2018-04-11T00:12:49.337Z,11.63
2018-04-11T00:12:53.650Z,11.57
2018-04-11T00:12:57.863Z,11.48
2018-04-11T00:13:02.100Z,11.51
2018-04-11T00:13:06.424Z,11.51
2018-04-11T00:13:10.632Z,11.51
2018-04-11T00:13:14.732Z,11.54
2018-04-11T00:13:19.046Z,11.54
2018-04-11T00:13:23.144Z,11.56
2018-04-11T00:13:27.243Z,11.62
2018-04-11T00:13:31.342Z,11.49
2018-04-11T00:13:35.444Z,11.49
2018-04-11T00:13:39.654Z,11.64
2018-04-11T00:13:43.867Z,11.51
2018-04-11T00:13:48.197Z,11.6
2018-04-11T00:13:52.408Z,11.56
2018-04-11T00:13:56.512Z,11.59
2018-04-11T00:14:00.841Z,11.59
2018-04-11T00:14:05.248Z,11.54
2018-04-11T00:14:09.458Z,11.54
2018-04-11T00:14:13.670Z,11.59
2018-04-11T00:14:17.981Z,11.56
2018-04-11T00:14:22.197Z,11.63
2018-04-11T00:14:26.340Z,11.56
2018-04-11T00:14:30.443Z,11.59
2018-04-11T00:14:34.757Z,11.57
2018-04-11T00:14:38.909Z,11.67
2018-04-11T00:14:43.011Z,11.57
2018-04-11T00:14:47.335Z,11.62
2018-04-11T00:14:51.692Z,11.59
2018-04-11T00:14:55.809Z,11.57
2018-04-11T00:15:00.144Z,11.59
2018-04-11T00:15:04.615Z,11.66
2018-04-11T00:15:08.721Z,11.59
2018-04-11T00:15:12.939Z,11.63
2018-04-11T00:15:17.273Z,11.59
2018-04-11T00:15:21.483Z,11.59
2018-04-11T00:15:25.693Z,11.64
2018-04-11T00:15:30.059Z,11.6
2018-04-11T00:15:34.369Z,11.66
2018-04-11T00:15:38.690Z,11.64
2018-04-11T00:15:42.904Z,11.63
2018-04-11T00:15:47.230Z,11.72
2018-04-11T00:15:51.553Z,11.64
2018-04-11T00:15:55.870Z,11.63
2018-04-11T00:16:00.191Z,11.67
2018-04-11T00:16:04.601Z,11.67
2018-04-11T00:16:08.916Z,11.59
2018-04-11T00:16:13.122Z,11.66
2018-04-11T00:16:17.329Z,11.59
2018-04-11T00:16:21.437Z,11.64
2018-04-11T00:16:25.690Z,11.64
2018-04-11T00:16:29.900Z,11.69
2018-04-11T00:16:34.006Z,11.7
2018-04-11T00:16:38.329Z,11.64
2018-04-11T00:16:42.546Z,11.69
2018-04-11T00:16:46.865Z,11.7
2018-04-11T00:16:51.188Z,11.66
2018-04-11T00:16:55.305Z,11.63
2018-04-11T00:16:59.304Z,11.7
2018-04-11T00:17:03.294Z,11.7
2018-04-11T00:17:07.526Z,11.67
2018-04-11T00:17:11.838Z,11.74
2018-04-11T00:17:16.048Z,11.64
2018-04-11T00:17:20.255Z,11.63
2018-04-11T00:17:24.469Z,11.67
2018-04-11T00:17:28.681Z,11.69
2018-04-11T00:17:32.902Z,11.72
2018-04-11T00:17:37.110Z,11.6
2018-04-11T00:17:41.338Z,11.64
2018-04-11T00:17:45.434Z,11.75
2018-04-11T00:17:49.673Z,11.63
2018-04-11T00:17:53.993Z,11.64
2018-04-11T00:17:58.206Z,11.66
2018-04-11T00:18:02.215Z,11.7
2018-04-11T00:18:06.423Z,11.67
2018-04-11T00:18:10.639Z,11.77
2018-04-11T00:18:14.849Z,11.69
2018-04-11T00:18:19.179Z,11.7
2018-04-11T00:18:23.385Z,11.67
2018-04-11T00:18:27.699Z,11.7
2018-04-11T00:18:32.013Z,11.66
2018-04-11T00:18:36.333Z,11.67
2018-04-11T00:18:40.538Z,11.64
2018-04-11T00:18:44.642Z,11.69
2018-04-11T00:18:48.961Z,11.69
2018-04-11T00:18:53.177Z,11.67
2018-04-11T00:18:57.391Z,11.67
2018-04-11T00:19:01.600Z,11.74
2018-04-11T00:19:06.019Z,11.74
2018-04-11T00:19:10.133Z,11.67
2018-04-11T00:19:14.240Z,11.75
2018-04-11T00:19:18.455Z,11.75
2018-04-11T00:19:22.662Z,11.7
2018-04-11T00:19:26.876Z,11.72
2018-04-11T00:19:31.080Z,11.74
2018-04-11T00:19:35.399Z,11.75
2018-04-11T00:19:39.607Z,11.79
2018-04-11T00:19:43.869Z,11.78
2018-04-11T00:19:48.185Z,11.77
2018-04-11T00:19:52.298Z,11.75
2018-04-11T00:19:56.617Z,11.81
2018-04-11T00:20:00.732Z,11.75
2018-04-11T00:20:05.054Z,11.75
2018-04-11T00:20:09.197Z,11.77
2018-04-11T00:20:13.315Z,11.77
2018-04-11T00:20:17.524Z,11.7
2018-04-11T00:20:21.734Z,11.85
2018-04-11T00:20:26.051Z,11.78
2018-04-11T00:20:30.157Z,11.81
2018-04-11T00:20:34.387Z,11.78
2018-04-11T00:20:38.615Z,11.81
2018-04-11T00:20:42.929Z,11.81
2018-04-11T00:20:47.135Z,11.84
2018-04-11T00:20:51.507Z,11.87
2018-04-11T00:20:55.718Z,11.78
2018-04-11T00:20:59.944Z,11.78
2018-04-11T00:21:03.831Z,11.74
2018-04-11T00:21:07.934Z,11.78
2018-04-11T00:21:12.255Z,11.85
2018-04-11T00:21:16.567Z,11.82
2018-04-11T00:21:20.778Z,11.78
2018-04-11T00:21:25.112Z,11.82
2018-04-11T00:21:29.113Z,11.85
2018-04-11T00:21:33.435Z,11.78
2018-04-11T00:21:37.646Z,11.84
2018-04-11T00:21:41.962Z,11.81
2018-04-11T00:21:46.170Z,11.87
2018-04-11T00:21:50.488Z,11.78
2018-04-11T00:21:54.704Z,11.84
2018-04-11T00:21:59.016Z,11.93
2018-04-11T00:22:03.013Z,11.78
2018-04-11T00:22:06.894Z,11.78
2018-04-11T00:22:11.212Z,11.88
2018-04-11T00:22:15.530Z,11.77
2018-04-11T00:22:19.745Z,11.93
2018-04-11T00:22:23.849Z,11.87
2018-04-11T00:22:28.066Z,11.85
2018-04-11T00:22:32.284Z,11.88
2018-04-11T00:22:36.600Z,11.81
2018-04-11T00:22:40.807Z,11.84
2018-04-11T00:22:45.134Z,11.96
2018-04-11T00:22:49.346Z,11.78
2018-04-11T00:22:53.656Z,11.87
2018-04-11T00:22:57.866Z,11.85
2018-04-11T00:23:02.385Z,11.93
2018-04-11T00:23:06.484Z,11.9
2018-04-11T00:23:10.584Z,11.97
2018-04-11T00:23:14.790Z,11.88
2018-04-11T00:23:19.003Z,11.9
2018-04-11T00:23:23.204Z,11.98
2018-04-11T00:23:27.421Z,11.9
2018-04-11T00:23:31.531Z,11.9
2018-04-11T00:23:35.848Z,11.94
2018-04-11T00:23:40.079Z,11.88
2018-04-11T00:23:44.290Z,11.93
2018-04-11T00:23:48.500Z,11.94
2018-04-11T00:23:52.819Z,11.94
2018-04-11T00:23:57.143Z,11.93
2018-04-11T00:24:01.357Z,11.96
2018-04-11T00:24:05.364Z,11.96
2018-04-11T00:24:09.146Z,11.93
2018-04-11T00:24:13.036Z,11.93
2018-04-11T00:24:17.258Z,12
2018-04-11T00:24:21.590Z,11.98
2018-04-11T00:24:25.699Z,11.9
2018-04-11T00:24:29.701Z,11.93
2018-04-11T00:24:34.020Z,11.98
2018-04-11T00:24:38.337Z,11.97
2018-04-11T00:24:42.548Z,11.94
2018-04-11T00:24:46.767Z,11.93
2018-04-11T00:24:51.083Z,11.85
2018-04-11T00:24:55.188Z,12
2018-04-11T00:24:59.501Z,11.93
2018-04-11T00:25:03.953Z,11.97
2018-04-11T00:25:07.953Z,11.98
2018-04-11T00:25:12.165Z,11.94
2018-04-11T00:25:16.484Z,11.88
2018-04-11T00:25:20.699Z,11.93
2018-04-11T00:25:24.695Z,11.96
2018-04-11T00:25:29.009Z,11.9
2018-04-11T00:25:33.110Z,11.94
2018-04-11T00:25:37.213Z,11.96
2018-04-11T00:25:41.530Z,11.94
2018-04-11T00:25:45.632Z,11.93
2018-04-11T00:25:49.844Z,11.96
2018-04-11T00:25:54.163Z,11.93
2018-04-11T00:25:58.380Z,11.9
2018-04-11T00:26:02.997Z,11.96
2018-04-11T00:26:06.882Z,11.93
2018-04-11T00:26:11.091Z,11.97
2018-04-11T00:26:15.202Z,11.94
2018-04-11T00:26:19.527Z,11.87
2018-04-11T00:26:23.736Z,11.87
2018-04-11T00:26:27.949Z,12.01
2018-04-11T00:26:32.165Z,11.96
2018-04-11T00:26:36.266Z,12
2018-04-11T00:26:40.471Z,12
2018-04-11T00:26:44.581Z,11.93
2018-04-11T00:26:48.908Z,12.01
2018-04-11T00:26:53.004Z,11.96
2018-04-11T00:26:57.336Z,11.87
2018-04-11T00:27:01.447Z,11.93
2018-04-11T00:27:05.754Z,11.9
2018-04-11T00:27:09.745Z,11.97
2018-04-11T00:27:14.067Z,11.96
2018-04-11T00:27:18.163Z,11.87
2018-04-11T00:27:22.272Z,11.98
2018-04-11T00:27:26.429Z,11.93
2018-04-11T00:27:30.634Z,11.96
2018-04-11T00:27:34.945Z,11.93
2018-04-11T00:27:39.268Z,11.9
2018-04-11T00:27:43.381Z,11.93
2018-04-11T00:27:47.718Z,11.97
2018-04-11T00:27:51.823Z,11.87
2018-04-11T00:27:55.921Z,11.93
2018-04-11T00:28:00.134Z,12
2018-04-11T00:28:04.345Z,11.94
2018-04-11T00:28:08.683Z,11.93
2018-04-11T00:28:12.897Z,11.85
2018-04-11T00:28:17.215Z,11.97
2018-04-11T00:28:21.421Z,11.94
2018-04-11T00:28:25.633Z,11.85
2018-04-11T00:28:29.850Z,11.93
2018-04-11T00:28:34.163Z,11.9
2018-04-11T00:28:38.484Z,11.9
2018-04-11T00:28:42.816Z,11.96
2018-04-11T00:28:47.136Z,11.88
2018-04-11T00:28:51.353Z,11.96
2018-04-11T00:28:55.677Z,11.94
2018-04-11T00:28:59.889Z,11.97
2018-04-11T00:29:04.172Z,11.9
2018-04-11T00:29:08.170Z,11.93
2018-04-11T00:29:12.375Z,11.93
2018-04-11T00:29:16.484Z,11.98
2018-04-11T00:29:20.798Z,11.93
2018-04-11T00:29:25.127Z,11.96
2018-04-11T00:29:29.249Z,11.96
2018-04-11T00:29:33.459Z,11.9
2018-04-11T00:29:37.780Z,11.98
2018-04-11T00:29:42.110Z,11.93
2018-04-11T00:29:46.503Z,11.88
2018-04-11T00:29:50.716Z,11.97
2018-04-11T00:29:54.820Z,11.98
2018-04-11T00:29:58.926Z,11.94
2018-04-11T00:30:03.182Z,11.9
2018-04-11T00:30:07.297Z,11.97
2018-04-11T00:30:11.183Z,12
2018-04-11T00:30:15.507Z,11.97
2018-04-11T00:30:19.716Z,11.9
2018-04-11T00:30:23.923Z,11.93
2018-04-11T00:30:28.135Z,11.93
2018-04-11T00:30:32.236Z,11.96
2018-04-11T00:30:36.449Z,12.01
2018-04-11T00:30:40.771Z,11.9
2018-04-11T00:30:45.088Z,11.88
2018-04-11T00:30:49.404Z,12
2018-04-11T00:30:53.718Z,11.94
2018-04-11T00:30:57.823Z,11.93
2018-04-11T00:31:02.036Z,11.94
2018-04-11T00:31:06.246Z,11.94
2018-04-11T00:31:10.347Z,11.97
2018-04-11T00:31:14.558Z,12
2018-04-11T00:31:18.662Z,11.88
2018-04-11T00:31:22.871Z,11.94
2018-04-11T00:31:26.979Z,11.98
2018-04-11T00:31:30.871Z,11.96
2018-04-11T00:31:35.078Z,11.96
2018-04-11T00:31:39.394Z,11.87
2018-04-11T00:31:43.605Z,11.9
2018-04-11T00:31:47.924Z,11.93
2018-04-11T00:31:52.234Z,11.93
2018-04-11T00:31:56.594Z,11.94
2018-04-11T00:32:00.717Z,11.96
2018-04-11T00:32:04.719Z,11.93
2018-04-11T00:32:09.041Z,11.94
2018-04-11T00:32:13.144Z,11.85
2018-04-11T00:32:17.354Z,11.85
2018-04-11T00:32:21.615Z,11.93
2018-04-11T00:32:25.620Z,11.96
2018-04-11T00:32:29.831Z,11.96
2018-04-11T00:32:34.151Z,11.96
2018-04-11T00:32:38.248Z,11.94
2018-04-11T00:32:42.558Z,11.96
2018-04-11T00:32:46.762Z,11.97
2018-04-11T00:32:50.965Z,11.96
2018-04-11T00:32:55.182Z,11.96
2018-04-11T00:32:59.285Z,11.96
2018-04-11T00:33:03.689Z,11.87
2018-04-11T00:33:07.903Z,11.96
2018-04-11T00:33:12.115Z,11.94
2018-04-11T00:33:16.227Z,11.94
2018-04-11T00:33:20.431Z,11.96
2018-04-11T00:33:24.635Z,11.93
2018-04-11T00:33:28.842Z,11.98
2018-04-11T00:33:33.166Z,11.9
2018-04-11T00:33:37.383Z,11.96
2018-04-11T00:33:41.591Z,11.94
2018-04-11T00:33:45.910Z,11.97
2018-04-11T00:33:50.224Z,11.94
2018-04-11T00:33:54.540Z,11.98
2018-04-11T00:33:58.757Z,11.94
2018-04-11T00:34:03.121Z,11.98
2018-04-11T00:34:06.900Z,11.96
2018-04-11T00:34:11.216Z,11.97
2018-04-11T00:34:15.419Z,11.96
2018-04-11T00:34:19.736Z,11.94
2018-04-11T00:34:23.937Z,11.88
2018-04-11T00:34:28.172Z,11.97
2018-04-11T00:34:32.382Z,11.94
2018-04-11T00:34:36.698Z,11.96
2018-04-11T00:34:41.024Z,11.93
2018-04-11T00:34:45.232Z,11.88
2018-04-11T00:34:49.437Z,11.9
2018-04-11T00:34:53.543Z,11.93
2018-04-11T00:34:57.760Z,11.93
2018-04-11T00:35:02.431Z,11.87
2018-04-11T00:35:06.659Z,11.93
2018-04-11T00:35:11.003Z,11.88
2018-04-11T00:35:15.107Z,11.93
2018-04-11T00:35:19.423Z,11.9
2018-04-11T00:35:23.741Z,11.96
2018-04-11T00:35:28.061Z,11.9
2018-04-11T00:35:32.276Z,11.93
2018-04-11T00:35:36.484Z,11.96
2018-04-11T00:35:40.691Z,11.94
2018-04-11T00:35:45.004Z,11.88
2018-04-11T00:35:49.316Z,11.87
2018-04-11T00:35:53.421Z,11.87
2018-04-11T00:35:57.738Z,11.96
2018-04-11T00:36:02.115Z,11.9
2018-04-11T00:36:06.111Z,11.93
2018-04-11T00:36:10.329Z,11.93
2018-04-11T00:36:14.537Z,11.82
2018-04-11T00:36:18.863Z,11.93
2018-04-11T00:36:22.961Z,11.93
2018-04-11T00:36:27.170Z,11.88
2018-04-11T00:36:31.486Z,11.93
2018-04-11T00:36:35.594Z,11.84
2018-04-11T00:36:39.913Z,11.84
2018-04-11T00:36:44.242Z,11.88
2018-04-11T00:36:48.580Z,11.93
2018-04-11T00:36:52.683Z,11.77
2018-04-11T00:36:56.912Z,11.85
2018-04-11T00:37:01.220Z,11.85
2018-04-11T00:37:05.647Z,11.78
2018-04-11T00:37:09.855Z,11.81
2018-04-11T00:37:14.178Z,11.79
2018-04-11T00:37:18.280Z,11.78
2018-04-11T00:37:22.482Z,11.87
2018-04-11T00:37:26.685Z,11.79
2018-04-11T00:37:30.886Z,11.81
2018-04-11T00:37:35.098Z,11.84
2018-04-11T00:37:39.409Z,11.77
2018-04-11T00:37:43.731Z,11.78
2018-04-11T00:37:47.949Z,11.78
2018-04-11T00:37:52.268Z,11.79
2018-04-11T00:37:56.472Z,11.74
2018-04-11T00:38:00.697Z,11.79
2018-04-11T00:38:04.698Z,11.77
2018-04-11T00:38:08.912Z,11.72
2018-04-11T00:38:13.226Z,11.79
2018-04-11T00:38:17.437Z,11.77
2018-04-11T00:38:21.644Z,11.72
2018-04-11T00:38:25.854Z,11.79
2018-04-11T00:38:30.061Z,11.87
2018-04-11T00:38:34.376Z,11.81
2018-04-11T00:38:38.588Z,11.81
2018-04-11T00:38:42.947Z,11.78
2018-04-11T00:38:47.152Z,11.82
2018-04-11T00:38:51.465Z,11.85
2018-04-11T00:38:55.605Z,11.75
2018-04-11T00:38:59.811Z,11.82
2018-04-11T00:39:03.697Z,11.74
2018-04-11T00:39:07.915Z,11.74
2018-04-11T00:39:12.021Z,11.75
2018-04-11T00:39:16.017Z,11.7
2018-04-11T00:39:20.328Z,11.77
2018-04-11T00:39:24.545Z,11.84
2018-04-11T00:39:28.759Z,11.77
2018-04-11T00:39:33.071Z,11.78
2018-04-11T00:39:37.383Z,11.77
2018-04-11T00:39:41.484Z,11.78
2018-04-11T00:39:45.810Z,11.79
2018-04-11T00:39:50.022Z,11.81
2018-04-11T00:39:54.356Z,11.82
2018-04-11T00:39:58.680Z,11.75
2018-04-11T00:40:03.260Z,11.79
2018-04-11T00:40:07.151Z,11.78
2018-04-11T00:40:11.465Z,11.77
2018-04-11T00:40:15.565Z,11.78
2018-04-11T00:40:19.792Z,11.72
2018-04-11T00:40:24.129Z,11.81
2018-04-11T00:40:28.341Z,11.72
2018-04-11T00:40:32.501Z,11.75
2018-04-11T00:40:36.813Z,11.67
2018-04-11T00:40:41.025Z,11.72
2018-04-11T00:40:45.340Z,11.77
2018-04-11T00:40:49.655Z,11.75
2018-04-11T00:40:53.976Z,11.69
2018-04-11T00:40:58.186Z,11.72
2018-04-11T00:41:02.450Z,11.72
2018-04-11T00:41:06.549Z,11.74
2018-04-11T00:41:10.871Z,11.7
2018-04-11T00:41:14.987Z,11.74
2018-04-11T00:41:19.310Z,11.78
2018-04-11T00:41:23.409Z,11.72
2018-04-11T00:41:27.627Z,11.69
2018-04-11T00:41:31.733Z,11.74
2018-04-11T00:41:35.694Z,11.69
2018-04-11T00:41:40.005Z,11.67
2018-04-11T00:41:44.328Z,11.72
2018-04-11T00:41:48.534Z,11.66
2018-04-11T00:41:52.847Z,11.66
2018-04-11T00:41:57.064Z,11.72
2018-04-11T00:42:01.281Z,11.7
2018-04-11T00:42:05.220Z,11.66
2018-04-11T00:42:09.431Z,11.67
2018-04-11T00:42:13.425Z,11.63
2018-04-11T00:42:17.530Z,11.7
2018-04-11T00:42:21.640Z,11.67
2018-04-11T00:42:25.852Z,11.69
2018-04-11T00:42:30.175Z,11.69
2018-04-11T00:42:34.177Z,11.69
2018-04-11T00:42:38.389Z,11.66
2018-04-11T00:42:42.608Z,11.69
2018-04-11T00:42:46.919Z,11.67
2018-04-11T00:42:51.237Z,11.77
2018-04-11T00:42:55.440Z,11.66
2018-04-11T00:42:59.650Z,11.72
2018-04-11T00:43:03.952Z,11.72
2018-04-11T00:43:08.295Z,11.72
2018-04-11T00:43:12.508Z,11.69
2018-04-11T00:43:16.610Z,11.64
2018-04-11T00:43:20.817Z,11.7
2018-04-11T00:43:24.914Z,11.67
2018-04-11T00:43:29.240Z,11.7
2018-04-11T00:43:33.563Z,11.63
2018-04-11T00:43:37.789Z,11.74
2018-04-11T00:43:42.102Z,11.6
2018-04-11T00:43:46.418Z,11.6
2018-04-11T00:43:50.524Z,11.6
2018-04-11T00:43:54.739Z,11.6
2018-04-11T00:43:59.062Z,11.69
2018-04-11T00:44:03.288Z,11.72
2018-04-11T00:44:07.390Z,11.64
2018-04-11T00:44:11.600Z,11.62
2018-04-11T00:44:15.916Z,11.64
2018-04-11T00:44:20.238Z,11.66
2018-04-11T00:44:24.461Z,11.72
2018-04-11T00:44:28.814Z,11.64
2018-04-11T00:44:32.919Z,11.69
2018-04-11T00:44:37.230Z,11.7
2018-04-11T00:44:41.435Z,11.64
2018-04-11T00:44:45.758Z,11.57
2018-04-11T00:44:49.973Z,11.67
2018-04-11T00:44:53.963Z,11.66
2018-04-11T00:44:58.064Z,11.66
2018-04-11T00:45:02.059Z,11.59
2018-04-11T00:45:06.056Z,11.56
2018-04-11T00:45:10.055Z,11.56
2018-04-11T00:45:14.372Z,11.57
2018-04-11T00:45:18.475Z,11.63
2018-04-11T00:45:22.684Z,11.62
2018-04-11T00:45:26.903Z,11.62
2018-04-11T00:45:31.234Z,11.59
2018-04-11T00:45:35.442Z,11.64
2018-04-11T00:45:39.764Z,11.62
2018-04-11T00:45:44.123Z,11.62
2018-04-11T00:45:48.441Z,11.59
2018-04-11T00:45:52.646Z,11.54
2018-04-11T00:45:56.745Z,11.57
2018-04-11T00:46:01.071Z,11.56
2018-04-11T00:46:05.210Z,11.57
2018-04-11T00:46:09.429Z,11.66
2018-04-11T00:46:13.755Z,11.63
2018-04-11T00:46:18.072Z,11.63
2018-04-11T00:46:22.404Z,11.6
2018-04-11T00:46:26.678Z,11.54
2018-04-11T00:46:30.838Z,11.59
2018-04-11T00:46:35.053Z,11.6
2018-04-11T00:46:39.162Z,11.6
2018-04-11T00:46:43.269Z,11.62
2018-04-11T00:46:47.596Z,11.48
2018-04-11T00:46:51.805Z,11.49
2018-04-11T00:46:56.116Z,11.49
2018-04-11T00:47:00.217Z,11.6
2018-04-11T00:47:04.681Z,11.59
2018-04-11T00:47:08.709Z,11.51
2018-04-11T00:47:13.035Z,11.54
2018-04-11T00:47:17.256Z,11.56
2018-04-11T00:47:21.572Z,11.51
2018-04-11T00:47:25.794Z,11.54
2018-04-11T00:47:30.001Z,11.62
2018-04-11T00:47:34.102Z,11.56
2018-04-11T00:47:38.426Z,11.6
2018-04-11T00:47:42.742Z,11.49
2018-04-11T00:47:46.961Z,11.54
2018-04-11T00:47:51.099Z,11.62
2018-04-11T00:47:55.413Z,11.48
2018-04-11T00:47:59.627Z,11.46
2018-04-11T00:48:04.035Z,11.57
2018-04-11T00:48:08.256Z,11.45
2018-04-11T00:48:12.578Z,11.53
2018-04-11T00:48:16.787Z,11.44
2018-04-11T00:48:20.894Z,11.6
2018-04-11T00:48:25.007Z,11.56
2018-04-11T00:48:29.216Z,11.46
2018-04-11T00:48:33.525Z,11.56
2018-04-11T00:48:37.840Z,11.44
2018-04-11T00:48:42.051Z,11.45
2018-04-11T00:48:46.365Z,11.49
2018-04-11T00:48:50.586Z,11.54
2018-04-11T00:48:54.586Z,11.51
2018-04-11T00:48:58.811Z,11.48
2018-04-11T00:49:03.106Z,11.51
2018-04-11T00:49:07.433Z,11.59
2018-04-11T00:49:11.533Z,11.54
2018-04-11T00:49:15.853Z,11.49
2018-04-11T00:49:20.059Z,11.46
2018-04-11T00:49:24.373Z,11.54
2018-04-11T00:49:28.270Z,11.51
2018-04-11T00:49:32.479Z,11.53
2018-04-11T00:49:36.791Z,11.49
2018-04-11T00:49:41.107Z,11.51
2018-04-11T00:49:45.314Z,11.56
2018-04-11T00:49:49.522Z,11.49
2018-04-11T00:49:53.735Z,11.49
2018-04-11T00:49:57.946Z,11.48
2018-04-11T00:50:02.058Z,11.49
2018-04-11T00:50:05.946Z,11.45
2018-04-11T00:50:10.154Z,11.46
2018-04-11T00:50:14.488Z,11.54
2018-04-11T00:50:18.710Z,11.49
2018-04-11T00:50:22.812Z,11.49
2018-04-11T00:50:27.022Z,11.54
2018-04-11T00:50:31.351Z,11.51
2018-04-11T00:50:35.664Z,11.46
2018-04-11T00:50:39.777Z,11.46
2018-04-11T00:50:44.098Z,11.49
2018-04-11T00:50:48.417Z,11.48
2018-04-11T00:50:52.728Z,11.53
2018-04-11T00:50:57.040Z,11.46
2018-04-11T00:51:01.247Z,11.49
2018-04-11T00:51:05.349Z,11.51
2018-04-11T00:51:09.666Z,11.51
2018-04-11T00:51:13.662Z,11.45
2018-04-11T00:51:17.976Z,11.45
2018-04-11T00:51:22.185Z,11.48
2018-04-11T00:51:26.394Z,11.46
2018-04-11T00:51:30.716Z,11.53
2018-04-11T00:51:34.813Z,11.49
2018-04-11T00:51:39.034Z,11.51
2018-04-11T00:51:43.028Z,11.54
2018-04-11T00:51:47.238Z,11.53
2018-04-11T00:51:51.446Z,11.53
2018-04-11T00:51:55.757Z,11.57
2018-04-11T00:51:59.754Z,11.53
2018-04-11T00:52:03.868Z,11.54
2018-04-11T00:52:07.864Z,11.46
2018-04-11T00:52:11.967Z,11.46
2018-04-11T00:52:16.282Z,11.53
2018-04-11T00:52:20.487Z,11.51
2018-04-11T00:52:24.589Z,11.48
2018-04-11T00:52:28.903Z,11.46
2018-04-11T00:52:33.046Z,11.46
2018-04-11T00:52:37.362Z,11.49
2018-04-11T00:52:41.573Z,11.49
2018-04-11T00:52:45.788Z,11.56
2018-04-11T00:52:50.011Z,11.53
2018-04-11T00:52:54.116Z,11.51
2018-04-11T00:52:58.322Z,11.54
2018-04-11T00:53:02.584Z,11.53
2018-04-11T00:53:06.582Z,11.56
2018-04-11T00:53:10.684Z,11.53
2018-04-11T00:53:14.998Z,11.49
2018-04-11T00:53:19.203Z,11.49
2018-04-11T00:53:23.409Z,11.51
2018-04-11T00:53:27.616Z,11.45
2018-04-11T00:53:31.826Z,11.53
2018-04-11T00:53:36.045Z,11.53
2018-04-11T00:53:40.367Z,11.51
2018-04-11T00:53:44.577Z,11.54
2018-04-11T00:53:48.789Z,11.39
2018-04-11T00:53:53.106Z,11.49
2018-04-11T00:53:57.208Z,11.49
2018-04-11T00:54:01.528Z,11.56
2018-04-11T00:54:05.897Z,11.42
2018-04-11T00:54:09.998Z,11.49
2018-04-11T00:54:14.205Z,11.53
2018-04-11T00:54:18.520Z,11.44
2018-04-11T00:54:22.843Z,11.51
2018-04-11T00:54:26.861Z,11.53